tititudorancea.com
Station Historical Data
Daily Summary for May 23, 2018 Units:  Metric    English   Both
« Previous Day
Next Day »
Daily Weekly Monthly Yearly Custom
  High: Low: Average:
Temperature: -17.8 °C 10.2 °C 11.2 °C
Dew Point: -17.8 °C 7.7 °C 9.1 °C
Humidity: Humidity % 76 % 87 %
Wind Speed: 0 km/h 1.9 km/h 11.1 km/h
Wind Gust: 0 km/h - -
Wind:- - SSW
Pressure: 0 hPa 1025.6 hPa -
Precipitation: 0 mm    
Historical Graphs
 
 
Ararat weather Find more about Weather in Ararat, AU


 



 


Tabular Data for May 23, 2018
Time Temperature Dew Point Pressure Wind Wind Speed Wind Gust Humidity Rainfall Rate (Hourly)
-17.8 °C -17.8 °C 0 hPa Calm     Humidity % 0 mm
00:01 11.2 °C 9.9 °C 1026.3 hPa SSW 5.6 km/h 5.6 km/h 92 % 0 mm
00:06 11.1 °C 9.8 °C 1026.3 hPa SSW 5.6 km/h 5.6 km/h 92 % 0 mm
00:11 11.1 °C 9.8 °C 1026 hPa SSW 13 km/h 13 km/h 92 % 0 mm
00:16 11 °C 9.7 °C 1026 hPa SSW 13 km/h 13 km/h 92 % 0 mm
00:21 10.9 °C 9.8 °C 1026 hPa SSW 11.1 km/h 11.1 km/h 93 % 0 mm
00:26 10.9 °C 9.8 °C 1026 hPa SSW 18.5 km/h 18.5 km/h 93 % 0 mm
00:31 10.8 °C 9.7 °C 1026 hPa SSW 8 km/h 8 km/h 93 % 0 mm
00:36 10.7 °C 9.6 °C 1026 hPa SSW 13 km/h 13 km/h 93 % 0 mm
00:41 10.7 °C 9.6 °C 1026 hPa SSW 9.3 km/h 9.3 km/h 93 % 0 mm
00:46 10.6 °C 9.5 °C 1026 hPa SSW 7.4 km/h 7.4 km/h 93 % 0 mm
00:51 10.6 °C 9.5 °C 1026 hPa SSW 18.5 km/h 18.5 km/h 93 % 0 mm
00:56 10.7 °C 9.6 °C 1025.6 hPa SSW 9.3 km/h 9.3 km/h 93 % 0 mm
01:01 10.7 °C 9.6 °C 1025.6 hPa SSW 13 km/h 13 km/h 93 % 0 mm
01:06 10.6 °C 9.5 °C 1025.6 hPa SSW 16.7 km/h 16.7 km/h 93 % 0 mm
01:11 10.6 °C 9.5 °C 1025.6 hPa SSW 9.3 km/h 9.3 km/h 93 % 0 mm
01:16 10.6 °C 9.4 °C 1026 hPa SSW 13 km/h 13 km/h 93 % 0 mm
01:21 10.5 °C 9.4 °C 1026 hPa SSW 14.8 km/h 14.8 km/h 93 % 0 mm
01:26 10.5 °C 9.4 °C 1026 hPa SSW 9.7 km/h 9.7 km/h 93 % 0 mm
01:31 10.4 °C 9.3 °C 1026 hPa SSW 14.5 km/h 14.5 km/h 93 % 0 mm
01:36 10.4 °C 9.3 °C 1026 hPa SSW 13 km/h 13 km/h 93 % 0 mm
01:41 10.4 °C 9.3 °C 1026 hPa SSW 11.1 km/h 11.1 km/h 93 % 0 mm
01:46 10.3 °C 9.3 °C 1026 hPa SSW 13 km/h 13 km/h 93 % 0 mm
01:51 10.3 °C 9.3 °C 1026 hPa SSW 16.7 km/h 16.7 km/h 93 % 0 mm
01:52 10.3 °C 9.3 °C 1026 hPa SSW 16.7 km/h 16.7 km/h 93 % 0 mm
01:57 10.3 °C 9.4 °C 1026 hPa SSW 14.8 km/h 14.8 km/h 94 % 0 mm
02:02 10.3 °C 9.3 °C 1026 hPa SSW 18.5 km/h 18.5 km/h 94 % 0 mm
02:07 10.3 °C 9.3 °C 1026 hPa SW 20.4 km/h 20.4 km/h 94 % 0 mm
02:12 10.2 °C 9.3 °C 1026 hPa SSW 18.5 km/h 18.5 km/h 94 % 0 mm
02:17 10.2 °C 9.3 °C 1026 hPa SSW 18.5 km/h 18.5 km/h 94 % 0 mm
02:22 10.3 °C 9.3 °C 1026 hPa SSW 18.5 km/h 18.5 km/h 94 % 0 mm
02:27 10.3 °C 9.3 °C 1026 hPa North 24.1 km/h 24.1 km/h 94 % 0 mm
02:32 10.3 °C 9.3 °C 1026 hPa SW 20.9 km/h 20.9 km/h 94 % 0 mm
02:37 10.3 °C 9.3 °C 1026 hPa SW 13 km/h 13 km/h 94 % 0 mm
02:39 10.2 °C 9.3 °C 1026 hPa SSW 20.4 km/h 20.4 km/h 94 % 0 mm
02:44 10.2 °C 9.3 °C 1026 hPa SSW 14.8 km/h 14.8 km/h 94 % 0 mm
02:49 10.2 °C 9.3 °C 1026 hPa SW 11.1 km/h 11.1 km/h 94 % 0 mm
02:54 10.2 °C 9.2 °C 1026.3 hPa SW 11.1 km/h 11.1 km/h 94 % 0 mm
02:59 10.2 °C 9.2 °C 1026 hPa WSW 18.5 km/h 18.5 km/h 94 % 0 mm
03:04 10.2 °C 9.2 °C 1026 hPa SSW 16.7 km/h 16.7 km/h 93 % 0 mm
03:09 10.3 °C 9.2 °C 1026 hPa SSW 14.8 km/h 14.8 km/h 93 % 0 mm
03:14 10.4 °C 9.3 °C 1026 hPa SSW 19.3 km/h 19.3 km/h 93 % 0 mm
03:19 10.4 °C 9.2 °C 1026 hPa SW 18.5 km/h 18.5 km/h 92 % 0 mm
03:24 10.4 °C 9.2 °C 1026 hPa SW 16.7 km/h 16.7 km/h 92 % 0 mm
03:29 10.5 °C 9.1 °C 1026 hPa WSW 13 km/h 13 km/h 91 % 0 mm
03:34 10.5 °C 9.1 °C 1026 hPa SSW 18.5 km/h 18.5 km/h 91 % 0 mm
03:39 10.5 °C 9.1 °C 1026 hPa SSW 14.8 km/h 14.8 km/h 91 % 0 mm
03:44 10.5 °C 9.1 °C 1026.3 hPa SSW 14.8 km/h 14.8 km/h 91 % 0 mm
03:49 10.4 °C 9.1 °C 1026.3 hPa SSW 11.1 km/h 11.1 km/h 91 % 0 mm
03:54 10.4 °C 9.1 °C 1026.3 hPa SSW 9.3 km/h 9.3 km/h 91 % 0 mm
03:59 10.5 °C 9.1 °C 1026.3 hPa SSW 5.6 km/h 5.6 km/h 91 % 0 mm
04:04 10.5 °C 9.1 °C 1026.3 hPa SSW 11.1 km/h 11.1 km/h 91 % 0 mm
04:09 10.4 °C 9.1 °C 1026.3 hPa SSW 9.3 km/h 9.3 km/h 91 % 0 mm
04:14 10.5 °C 8.9 °C 1026.3 hPa SSW 16.7 km/h 16.7 km/h 90 % 0 mm
04:19 10.6 °C 9.1 °C 1026.3 hPa SSW 13 km/h 13 km/h 90 % 0 mm
04:24 10.6 °C 9.1 °C 1026.3 hPa SSW 13 km/h 13 km/h 90 % 0 mm
04:29 10.6 °C 9.1 °C 1026.3 hPa SSW 24.1 km/h 24.1 km/h 90 % 0 mm
04:34 10.6 °C 8.9 °C 1026.3 hPa SSW 7.4 km/h 7.4 km/h 89 % 0 mm
04:39 10.7 °C 9.1 °C 1026.3 hPa SSW 9.3 km/h 9.3 km/h 90 % 0 mm
04:44 10.6 °C 9.1 °C 1026.3 hPa SSW 9.3 km/h 9.3 km/h 90 % 0 mm
04:49 10.6 °C 9.1 °C 1026.3 hPa SSW 7.4 km/h 7.4 km/h 90 % 0 mm
04:54 10.6 °C 9.1 °C 1026.3 hPa SSW 5.6 km/h 5.6 km/h 90 % 0 mm
04:59 10.6 °C 9.1 °C 1026.3 hPa SSW 5.6 km/h 5.6 km/h 90 % 0 mm
05:04 10.6 °C 9.1 °C 1026.6 hPa SSW 9.3 km/h 9.3 km/h 90 % 0 mm
05:09 10.6 °C 9.1 °C 1026.6 hPa SSW 6.4 km/h 6.4 km/h 90 % 0 mm
05:14 10.7 °C 9.1 °C 1026.6 hPa SSW 5.6 km/h 5.6 km/h 90 % 0 mm
05:19 10.6 °C 9.1 °C 1026.6 hPa SSW 8 km/h 8 km/h 90 % 0 mm
05:24 10.7 °C 9.1 °C 1026.6 hPa SSW 6.4 km/h 6.4 km/h 90 % 0 mm
05:29 10.7 °C 9.1 °C 1026.6 hPa SSW 7.4 km/h 7.4 km/h 90 % 0 mm
05:34 10.7 °C 9.1 °C 1026.6 hPa SSW 5.6 km/h 5.6 km/h 90 % 0 mm
05:39 10.6 °C 9.1 °C 1026.6 hPa SSW 4.8 km/h 4.8 km/h 90 % 0 mm
05:44 10.6 °C 9.1 °C 1026.6 hPa SSW 5.6 km/h 5.6 km/h 90 % 0 mm
05:49 10.6 °C 9.1 °C 1026.6 hPa SSW 5.6 km/h 5.6 km/h 90 % 0 mm
05:54 10.6 °C 9.2 °C 1026.6 hPa SSW 5.6 km/h 5.6 km/h 91 % 0 mm
05:59 10.6 °C 9.2 °C 1027 hPa SSW 5.6 km/h 5.6 km/h 91 % 0 mm
06:04 10.6 °C 9.2 °C 1027 hPa SSW 1.9 km/h 1.9 km/h 91 % 0 mm
06:09 10.6 °C 9.2 °C 1027 hPa SSW 6.4 km/h 6.4 km/h 91 % 0 mm
06:14 10.6 °C 9.2 °C 1027 hPa SSW 5.6 km/h 5.6 km/h 91 % 0 mm
06:19 10.6 °C 9.3 °C 1027 hPa SSW 9.3 km/h 9.3 km/h 92 % 0 mm
06:24 10.5 °C 9.3 °C 1027 hPa SSW 5.6 km/h 5.6 km/h 92 % 0 mm
06:29 10.5 °C 9.3 °C 1027 hPa SSW 6.4 km/h 6.4 km/h 92 % 0 mm
06:34 10.4 °C 9.2 °C 1027 hPa SSW 7.4 km/h 7.4 km/h 92 % 0 mm
06:39 10.4 °C 9.2 °C 1027 hPa SSW 4.8 km/h 4.8 km/h 92 % 0 mm
06:44 10.4 °C 9.2 °C 1027 hPa SSW 4.8 km/h 4.8 km/h 92 % 0 mm
06:49 10.4 °C 9.2 °C 1027 hPa SSW 5.6 km/h 5.6 km/h 92 % 0 mm
06:54 10.4 °C 9.3 °C 1027 hPa SSW 5.6 km/h 5.6 km/h 93 % 0 mm
06:59 10.4 °C 9.3 °C 1027 hPa SSW 9.3 km/h 9.3 km/h 93 % 0 mm
07:04 10.4 °C 9.3 °C 1027.3 hPa SSW 3.7 km/h 3.7 km/h 93 % 0 mm
07:09 10.4 °C 9.3 °C 1027.3 hPa SSW 6.4 km/h 6.4 km/h 93 % 0 mm
07:14 10.5 °C 9.4 °C 1027.3 hPa SSW 13 km/h 13 km/h 93 % 0 mm
07:19 10.5 °C 9.4 °C 1027.3 hPa North 9.3 km/h 9.3 km/h 93 % 0 mm
07:24 10.6 °C 9.4 °C 1027.3 hPa SSW 6.4 km/h 6.4 km/h 93 % 0 mm
07:29 10.5 °C 9.4 °C 1027.3 hPa SSW 9.3 km/h 9.3 km/h 93 % 0 mm
07:34 10.5 °C 9.6 °C 1027.3 hPa SSW 9.3 km/h 9.3 km/h 94 % 0 mm
07:39 10.5 °C 9.6 °C 1027.3 hPa SSW 5.6 km/h 5.6 km/h 94 % 0 mm
07:43 10.5 °C 9.6 °C 1027.3 hPa SSW 5.6 km/h 5.6 km/h 94 % 0 mm
07:48 10.5 °C 9.6 °C 1027.3 hPa SSW 7.4 km/h 7.4 km/h 94 % 0 mm
07:53 10.6 °C 9.6 °C 1027.3 hPa SSW 7.4 km/h 7.4 km/h 94 % 0 mm
07:58 10.6 °C 9.4 °C 1027.7 hPa SSW 3.7 km/h 3.7 km/h 93 % 0 mm
08:03 10.6 °C 9.7 °C 1027.7 hPa SSW 5.6 km/h 5.6 km/h 94 % 0 mm
08:08 10.6 °C 9.7 °C 1027.7 hPa SSW 3.2 km/h 3.2 km/h 94 % 0 mm
08:13 10.6 °C 9.7 °C 1027.7 hPa SSW 5.6 km/h 5.6 km/h 94 % 0 mm
08:18 10.7 °C 9.7 °C 1027.7 hPa SSW 6.4 km/h 6.4 km/h 94 % 0 mm
08:23 10.7 °C 9.6 °C 1027.7 hPa SSW 5.6 km/h 5.6 km/h 93 % 0 mm
08:28 10.7 °C 9.6 °C 1028 hPa SSW 5.6 km/h 5.6 km/h 93 % 0 mm
08:33 10.8 °C 9.8 °C 1028 hPa SSW 7.4 km/h 7.4 km/h 94 % 0 mm
08:34 10.7 °C 9.8 °C 1028 hPa SSW 6.4 km/h 6.4 km/h 94 % 0 mm
08:39 10.8 °C 9.8 °C 1028 hPa SSW 9.3 km/h 9.3 km/h 94 % 0 mm
08:41 10.8 °C 9.8 °C 1028 hPa SSW 5.6 km/h 5.6 km/h 94 % 0 mm
08:46 10.8 °C 9.9 °C 1028 hPa SSW 7.4 km/h 7.4 km/h 94 % 0 mm
08:51 10.8 °C 9.9 °C 1028 hPa SSW 5.6 km/h 5.6 km/h 94 % 0 mm
08:56 10.9 °C 9.9 °C 1028 hPa SSW 7.4 km/h 7.4 km/h 94 % 0 mm
09:01 10.9 °C 9.9 °C 1028 hPa SSW 7.4 km/h 7.4 km/h 94 % 0 mm
09:06 10.8 °C 9.9 °C 1028 hPa SSW 7.4 km/h 7.4 km/h 94 % 0 mm
09:11 10.8 °C 9.9 °C 1028 hPa SSW 7.4 km/h 7.4 km/h 94 % 0 mm
09:16 10.9 °C 9.9 °C 1028 hPa SSW 7.4 km/h 7.4 km/h 94 % 0 mm
09:21 10.9 °C 9.9 °C 1028 hPa SSW 13 km/h 13 km/h 94 % 0 mm
09:26 10.9 °C 9.9 °C 1028 hPa SSW 14.8 km/h 14.8 km/h 94 % 0 mm
09:31 10.9 °C 9.8 °C 1028.3 hPa SSW 9.7 km/h 9.7 km/h 93 % 0 mm
09:36 11 °C 9.9 °C 1028.3 hPa SSW 7.4 km/h 7.4 km/h 93 % 0 mm
09:41 11.1 °C 9.9 °C 1028.3 hPa SSW 5.6 km/h 5.6 km/h 93 % 0 mm
09:46 11.1 °C 10 °C 1028.3 hPa SSW 13 km/h 13 km/h 93 % 0 mm
09:51 11.2 °C 10.1 °C 1028.3 hPa SSW 9.3 km/h 9.3 km/h 93 % 0 mm
09:56 11.2 °C 10.1 °C 1028.3 hPa SSE 11.1 km/h 11.1 km/h 93 % 0 mm
10:01 11.2 °C 10.1 °C 1028.3 hPa SSE 11.1 km/h 11.1 km/h 93 % 0 mm
10:03 11.2 °C 10.1 °C 1028.3 hPa SSE 11.1 km/h 11.1 km/h 93 % 0 mm
10:08 11.2 °C 10.1 °C 1028.3 hPa South 11.1 km/h 11.1 km/h 93 % 0 mm
10:13 11.2 °C 10.1 °C 1028.3 hPa South 14.8 km/h 14.8 km/h 93 % 0 mm
10:18 11.2 °C 10.1 °C 1028.3 hPa South 16.7 km/h 16.7 km/h 93 % 0 mm
10:23 11.2 °C 10.1 °C 1028.3 hPa South 11.1 km/h 11.1 km/h 93 % 0 mm
10:28 11.3 °C 10.2 °C 1028.3 hPa South 16.7 km/h 16.7 km/h 93 % 0 mm
10:33 11.3 °C 10.2 °C 1028.3 hPa South 16.7 km/h 16.7 km/h 93 % 0 mm
10:38 11.3 °C 10.2 °C 1028.3 hPa South 9.7 km/h 9.7 km/h 93 % 0 mm
10:43 11.4 °C 10.3 °C 1028.3 hPa South 14.8 km/h 14.8 km/h 93 % 0 mm
10:48 11.4 °C 10.3 °C 1028.3 hPa South 18.5 km/h 18.5 km/h 93 % 0 mm
10:53 11.4 °C 10.3 °C 1028.3 hPa South 9.7 km/h 9.7 km/h 93 % 0 mm
10:58 11.5 °C 10.2 °C 1028 hPa South 18.5 km/h 18.5 km/h 92 % 0 mm
11:03 11.6 °C 10.3 °C 1028 hPa SSW 16.7 km/h 16.7 km/h 92 % 0 mm
11:05 11.6 °C 10.3 °C 1028 hPa South 18.5 km/h 18.5 km/h 92 % 0 mm
11:10 11.6 °C 10.1 °C 1028 hPa SSW 24.1 km/h 24.1 km/h 91 % 0 mm
11:15 11.6 °C 10.2 °C 1028 hPa SSW 14.8 km/h 14.8 km/h 91 % 0 mm
11:20 11.6 °C 10.2 °C 1028 hPa SSW 9.3 km/h 9.3 km/h 91 % 0 mm
11:24 11.7 °C 10.2 °C 1028 hPa SSW 13 km/h 13 km/h 91 % 0 mm
11:29 11.7 °C 10.2 °C 1028 hPa SSW 16.1 km/h 16.1 km/h 91 % 0 mm
11:34 11.8 °C 10.3 °C 1028 hPa SSW 13 km/h 13 km/h 91 % 0 mm
11:39 11.9 °C 10.3 °C 1028 hPa SSW 11.3 km/h 11.3 km/h 90 % 0 mm
11:44 12.1 °C 10.5 °C 1028 hPa SSW 11.1 km/h 11.1 km/h 90 % 0 mm
11:49 12.2 °C 10.4 °C 1027.7 hPa SSW 14.8 km/h 14.8 km/h 89 % 0 mm
11:54 12.2 °C 10.1 °C 1027.7 hPa SSW 20.4 km/h 20.4 km/h 87 % 0 mm
11:59 12.1 °C 10 °C 1027.7 hPa SSW 18.5 km/h 18.5 km/h 87 % 0 mm
12:04 12 °C 9.9 °C 1027.7 hPa SSW 22.2 km/h 22.2 km/h 87 % 0 mm
12:09 11.8 °C 9.5 °C 1027.7 hPa SSW 25.9 km/h 25.9 km/h 86 % 0 mm
12:14 11.8 °C 9.3 °C 1027.7 hPa SW 18.5 km/h 18.5 km/h 85 % 0 mm
12:19 11.9 °C 9.3 °C 1027.3 hPa SW 13 km/h 13 km/h 84 % 0 mm
12:24 12 °C 9.4 °C 1027.3 hPa SSW 14.8 km/h 14.8 km/h 84 % 0 mm
12:29 12.2 °C 9.2 °C 1027.3 hPa SW 18.5 km/h 18.5 km/h 82 % 0 mm
12:34 12.3 °C 9.1 °C 1027.3 hPa SSW 18.5 km/h 18.5 km/h 81 % 0 mm
12:39 12.3 °C 9.2 °C 1027.3 hPa SSW 13 km/h 13 km/h 81 % 0 mm
12:45 12.4 °C 8.8 °C 1027 hPa SW 14.8 km/h 14.8 km/h 79 % 0 mm
12:49 12.4 °C 8.7 °C 1027 hPa SW 19.3 km/h 19.3 km/h 78 % 0 mm
12:54 12.5 °C 8.6 °C 1027 hPa SW 18.5 km/h 18.5 km/h 77 % 0 mm
13:00 12.5 °C 8.4 °C 1027 hPa SW 24.1 km/h 24.1 km/h 76 % 0 mm
13:05 12.5 °C 8.6 °C 1027 hPa SSW 19.3 km/h 19.3 km/h 77 % 0 mm
13:09 12.5 °C 8.6 °C 1027 hPa SSW 18.5 km/h 18.5 km/h 77 % 0 mm
13:15 12.5 °C 8.8 °C 1027 hPa SSW 14.8 km/h 14.8 km/h 78 % 0 mm
13:19 12.5 °C 8.8 °C 1027 hPa SSW 16.7 km/h 16.7 km/h 78 % 0 mm
13:25 12.5 °C 8.9 °C 1027 hPa SSW 13 km/h 13 km/h 79 % 0 mm
13:30 12.5 °C 8.9 °C 1027 hPa SW 18.5 km/h 18.5 km/h 79 % 0 mm
13:35 12.5 °C 8.9 °C 1027 hPa SW 9.7 km/h 19.3 km/h 79 % 0 mm
13:40 12.6 °C 9 °C 1026.6 hPa SW 9.7 km/h 16.1 km/h 79 % 0 mm
13:45 12.7 °C 9.1 °C 1026.6 hPa WSW 8 km/h 11.3 km/h 79 % 0 mm
13:50 12.8 °C 9.2 °C 1026.6 hPa SW 4.8 km/h 12.9 km/h 79 % 0 mm
13:55 12.8 °C 8.8 °C 1026.6 hPa SW 12.9 km/h 19.3 km/h 77 % 0 mm
14:00 12.8 °C 8.8 °C 1026.6 hPa SW 11.3 km/h 19.3 km/h 77 % 0 mm
14:05 12.7 °C 9 °C 1026.6 hPa SW 4.8 km/h 20.9 km/h 78 % 0 mm
14:08 12.7 °C 8.8 °C 1026.6 hPa SSW 18.5 km/h 18.5 km/h 77 % 0 mm
14:13 12.7 °C 9 °C 1026.6 hPa SW 16.7 km/h 16.7 km/h 78 % 0 mm
14:18 12.7 °C 9 °C 1026.6 hPa SW 16.7 km/h 16.7 km/h 78 % 0 mm
14:23 12.7 °C 9 °C 1026.6 hPa SW 13 km/h 13 km/h 78 % 0 mm
14:29 12.7 °C 9 °C 1026.6 hPa SW 13 km/h 13 km/h 78 % 0 mm
14:33 12.7 °C 9.2 °C 1026.6 hPa SW 13 km/h 13 km/h 79 % 0 mm
14:39 12.7 °C 9.2 °C 1026.6 hPa SW 18.5 km/h 18.5 km/h 79 % 0 mm
14:44 12.7 °C 9.1 °C 1026.6 hPa SSW 14.8 km/h 14.8 km/h 79 % 0 mm
14:48 12.6 °C 9.1 °C 1026.6 hPa SSW 18.5 km/h 18.5 km/h 79 % 0 mm
14:54 12.6 °C 9.2 °C 1026.3 hPa SSW 18.5 km/h 18.5 km/h 80 % 0 mm
14:59 12.6 °C 9.2 °C 1026.6 hPa SSW 14.8 km/h 14.8 km/h 80 % 0 mm
15:04 12.6 °C 9.2 °C 1026.6 hPa SSW 16.7 km/h 16.7 km/h 80 % 0 mm
15:09 12.6 °C 9.4 °C 1026.6 hPa North 16.7 km/h 16.7 km/h 81 % 0 mm
15:14 12.5 °C 9.3 °C 1026.6 hPa SW 20.4 km/h 20.4 km/h 81 % 0 mm
15:19 12.4 °C 8.9 °C 1026.6 hPa SSW 18.5 km/h 18.5 km/h 79 % 0 mm
15:24 12.5 °C 8.9 °C 1026.6 hPa SSW 14.8 km/h 14.8 km/h 79 % 0 mm
15:29 12.5 °C 8.8 °C 1026.6 hPa SSW 12.9 km/h 12.9 km/h 78 % 0 mm
15:34 12.6 °C 8.8 °C 1026.6 hPa SSW 6.4 km/h 6.4 km/h 78 % 0 mm
15:39 12.6 °C 8.6 °C 1026.6 hPa SSW 18.5 km/h 18.5 km/h 77 % 0 mm
15:44 12.6 °C 8.4 °C 1026.6 hPa SSW 13 km/h 13 km/h 76 % 0 mm
15:49 12.6 °C 8.7 °C 1026.6 hPa SSW 9.3 km/h 9.3 km/h 77 % 0 mm
15:54 12.6 °C 8.7 °C 1026.6 hPa SSW 7.4 km/h 7.4 km/h 77 % 0 mm
15:59 12.7 °C 8.9 °C 1026.6 hPa SSW 11.1 km/h 11.1 km/h 78 % 0 mm
16:04 12.7 °C 8.7 °C 1026.6 hPa SSW 16.1 km/h 16.1 km/h 77 % 0 mm
16:09 12.6 °C 8.5 °C 1026.3 hPa SSW 13 km/h 13 km/h 76 % 0 mm
16:14 12.6 °C 8.7 °C 1026.3 hPa SSW 9.3 km/h 9.3 km/h 77 % 0 mm
16:19 12.6 °C 8.7 °C 1026.3 hPa SSW 13 km/h 13 km/h 77 % 0 mm
16:24 12.6 °C 8.8 °C 1026.6 hPa SSW 14.8 km/h 14.8 km/h 78 % 0 mm
16:29 12.5 °C 8.8 °C 1026.6 hPa SSW 13 km/h 13 km/h 78 % 0 mm
16:34 12.4 °C 8.9 °C 1026.6 hPa North 11.1 km/h 11.1 km/h 79 % 0 mm
16:39 12.4 °C 8.9 °C 1026.6 hPa SSW 7.4 km/h 7.4 km/h 79 % 0 mm
16:44 12.4 °C 8.8 °C 1026.6 hPa SSW 11.3 km/h 11.3 km/h 79 % 0 mm
16:49 12.3 °C 8.8 °C 1026.6 hPa SSW 11.3 km/h 11.3 km/h 79 % 0 mm
16:54 12.3 °C 8.9 °C 1026.6 hPa SSW 12.9 km/h 12.9 km/h 80 % 0 mm
16:59 12.2 °C 8.9 °C 1026.6 hPa SSW 11.1 km/h 11.1 km/h 80 % 0 mm
17:04 12.2 °C 9.1 °C 1026.6 hPa SSW 11.1 km/h 11.1 km/h 81 % 0 mm
17:09 12.2 °C 9 °C 1026.6 hPa SSW 9.3 km/h 9.3 km/h 81 % 0 mm
17:14 12.1 °C 8.9 °C 1026.3 hPa SSW 8 km/h 8 km/h 81 % 0 mm
17:19 12.1 °C 8.9 °C 1026.6 hPa SSW 8 km/h 8 km/h 81 % 0 mm
17:24 12.1 °C 8.9 °C 1026.6 hPa SSW 9.3 km/h 9.3 km/h 81 % 0 mm
17:29 12.1 °C 8.7 °C 1026.6 hPa North 11.1 km/h 11.1 km/h 80 % 0 mm
17:34 12.1 °C 8.7 °C 1026.6 hPa SSW 9.3 km/h 9.3 km/h 80 % 0 mm
17:39 12.1 °C 8.9 °C 1026.6 hPa SSW 6.4 km/h 6.4 km/h 81 % 0 mm
17:44 12.1 °C 8.9 °C 1026.6 hPa SSW 9.3 km/h 9.3 km/h 81 % 0 mm
17:49 12 °C 8.8 °C 1026.6 hPa North 9.7 km/h 9.7 km/h 81 % 0 mm
17:54 12 °C 9 °C 1026.6 hPa North 5.6 km/h 5.6 km/h 82 % 0 mm
17:59 11.9 °C 8.9 °C 1026.6 hPa North 11.1 km/h 11.1 km/h 82 % 0 mm
18:04 11.9 °C 8.9 °C 1026.6 hPa SSW 11.1 km/h 11.1 km/h 82 % 0 mm
18:09 11.9 °C 9.2 °C 1026.6 hPa SSW 13 km/h 13 km/h 83 % 0 mm
18:14 11.9 °C 9.1 °C 1026.6 hPa SSW 11.1 km/h 11.1 km/h 83 % 0 mm
18:19 11.9 °C 9.1 °C 1027 hPa SSW 11.1 km/h 11.1 km/h 83 % 0 mm
18:24 11.9 °C 9.1 °C 1027 hPa SSW 14.8 km/h 14.8 km/h 83 % 0 mm
18:29 11.8 °C 9.1 °C 1027 hPa SSW 13 km/h 13 km/h 83 % 0 mm
18:34 11.8 °C 9 °C 1027 hPa SSW 14.8 km/h 14.8 km/h 83 % 0 mm
18:39 11.8 °C 9 °C 1027 hPa SSW 16.7 km/h 16.7 km/h 83 % 0 mm
18:44 11.7 °C 9.1 °C 1027 hPa SSW 9.3 km/h 9.3 km/h 84 % 0 mm
18:49 11.7 °C 9.1 °C 1027 hPa SSW 8 km/h 8 km/h 84 % 0 mm
18:54 11.7 °C 9.2 °C 1027 hPa SSW 11.1 km/h 11.1 km/h 85 % 0 mm
18:59 11.6 °C 9 °C 1027 hPa SSW 13 km/h 13 km/h 84 % 0 mm
19:04 11.6 °C 9.2 °C 1027 hPa SSW 12.9 km/h 12.9 km/h 85 % 0 mm
19:09 11.6 °C 9 °C 1027 hPa SSW 11.1 km/h 11.1 km/h 84 % 0 mm
19:14 11.6 °C 8.8 °C 1027 hPa SSW 9.7 km/h 9.7 km/h 83 % 0 mm
19:19 11.6 °C 8.7 °C 1027 hPa SSW 11.1 km/h 11.1 km/h 82 % 0 mm
19:24 11.6 °C 8.4 °C 1027 hPa SSW 14.8 km/h 14.8 km/h 81 % 0 mm
19:29 11.6 °C 8.4 °C 1027 hPa SSW 13 km/h 13 km/h 81 % 0 mm
19:34 11.6 °C 8.3 °C 1027 hPa North 13 km/h 13 km/h 80 % 0 mm
19:39 11.6 °C 8.1 °C 1027 hPa SSW 14.8 km/h 14.8 km/h 79 % 0 mm
19:44 11.6 °C 7.7 °C 1027 hPa SSW 11.1 km/h 11.1 km/h 77 % 0 mm
19:49 11.7 °C 7.8 °C 1027 hPa SSW 11.1 km/h 11.1 km/h 77 % 0 mm
19:54 11.7 °C 7.8 °C 1027 hPa SSW 13 km/h 13 km/h 77 % 0 mm
19:59 11.7 °C 7.8 °C 1027 hPa SSW 14.8 km/h 14.8 km/h 77 % 0 mm
20:04 11.7 °C 7.8 °C 1027 hPa SSW 11.1 km/h 11.1 km/h 77 % 0 mm
20:09 11.7 °C 7.8 °C 1027 hPa SSW 14.8 km/h 14.8 km/h 77 % 0 mm
20:14 11.6 °C 7.7 °C 1027 hPa North 14.8 km/h 14.8 km/h 77 % 0 mm
20:19 11.6 °C 7.9 °C 1027 hPa SSW 5.6 km/h 5.6 km/h 78 % 0 mm
20:24 11.6 °C 7.8 °C 1027 hPa SSW 7.4 km/h 7.4 km/h 78 % 0 mm
20:29 11.6 °C 7.8 °C 1027 hPa SSW 6.4 km/h 6.4 km/h 78 % 0 mm
20:34 11.5 °C 8 °C 1027 hPa SSW 5.6 km/h 5.6 km/h 79 % 0 mm
20:39 11.5 °C 8 °C 1027 hPa SSW 3.7 km/h 3.7 km/h 79 % 0 mm
20:44 11.4 °C 8.1 °C 1027 hPa SSW 5.6 km/h 5.6 km/h 80 % 0 mm
20:49 11.4 °C 8.1 °C 1027 hPa North 5.6 km/h 5.6 km/h 80 % 0 mm
20:54 11.3 °C 8.2 °C 1027 hPa SSW 4.8 km/h 4.8 km/h 81 % 0 mm
20:59 11.3 °C 8.2 °C 1027 hPa SSW 5.6 km/h 5.6 km/h 81 % 0 mm
21:04 11.3 °C 8.3 °C 1027 hPa SSW 5.6 km/h 5.6 km/h 82 % 0 mm
21:09 11.3 °C 8.3 °C 1027 hPa North 5.6 km/h 5.6 km/h 82 % 0 mm
21:14 11.3 °C 8.3 °C 1027 hPa SSW 6.4 km/h 6.4 km/h 82 % 0 mm
21:19 11.3 °C 8.3 °C 1027 hPa SSW 6.4 km/h 6.4 km/h 82 % 0 mm
21:24 11.2 °C 8.4 °C 1027 hPa SSW 5.6 km/h 5.6 km/h 83 % 0 mm
21:29 11.2 °C 8.4 °C 1027 hPa SSW 5.6 km/h 5.6 km/h 83 % 0 mm
21:34 11.2 °C 8.6 °C 1027 hPa SSW 6.4 km/h 6.4 km/h 84 % 0 mm
21:39 11.2 °C 8.6 °C 1027 hPa SSW 5.6 km/h 5.6 km/h 84 % 0 mm
21:44 11.2 °C 8.6 °C 1027.3 hPa SSW 4.8 km/h 4.8 km/h 84 % 0 mm
21:49 11.2 °C 8.6 °C 1027.3 hPa SSW 5.6 km/h 5.6 km/h 84 % 0 mm
21:54 11.2 °C 8.6 °C 1027.3 hPa SSW 6.4 km/h 6.4 km/h 84 % 0 mm
21:59 11.2 °C 8.6 °C 1027.3 hPa SSW 8 km/h 8 km/h 84 % 0 mm
22:04 11.2 °C 8.6 °C 1027.3 hPa SSW 5.6 km/h 5.6 km/h 84 % 0 mm
22:09 11.2 °C 8.6 °C 1027.3 hPa SSW 7.4 km/h 7.4 km/h 84 % 0 mm
22:14 11.1 °C 8.5 °C 1027.3 hPa SSW 6.4 km/h 6.4 km/h 84 % 0 mm
22:19 11.1 °C 8.7 °C 1027.3 hPa SSW 9.3 km/h 9.3 km/h 85 % 0 mm
22:24 11.1 °C 8.6 °C 1027.3 hPa SSW 11.1 km/h 11.1 km/h 85 % 0 mm
22:29 11.1 °C 8.6 °C 1027.3 hPa SSW 5.6 km/h 5.6 km/h 85 % 0 mm
22:34 11.1 °C 8.6 °C 1027.3 hPa SSW 5.6 km/h 5.6 km/h 85 % 0 mm
22:39 11.1 °C 8.6 °C 1027.3 hPa North 5.6 km/h 5.6 km/h 85 % 0 mm
22:44 11.1 °C 8.6 °C 1027.3 hPa SSW 11.1 km/h 11.1 km/h 85 % 0 mm
22:49 11.1 °C 8.6 °C 1027 hPa SSW 7.4 km/h 7.4 km/h 85 % 0 mm
22:54 11.1 °C 8.8 °C 1027.3 hPa SSW 11.3 km/h 11.3 km/h 86 % 0 mm
22:59 11 °C 8.7 °C 1027 hPa SSW 9.3 km/h 9.3 km/h 86 % 0 mm
23:04 11 °C 8.9 °C 1027 hPa North 11.1 km/h 11.1 km/h 87 % 0 mm
23:09 10.9 °C 8.9 °C 1027 hPa SSW 5.6 km/h 5.6 km/h 87 % 0 mm
23:14 10.9 °C 8.9 °C 1027 hPa SSW 7.4 km/h 7.4 km/h 87 % 0 mm
23:19 10.9 °C 8.9 °C 1027 hPa SSW 5.6 km/h 6.1 km/h 87 % 0 mm
23:24 10.9 °C 8.9 °C 1027 hPa North 5.6 km/h 5.6 km/h 87 % 0 mm
23:29 10.9 °C 9.1 °C 1027 hPa SSW 9.3 km/h 9.3 km/h 88 % 0 mm
23:34 10.9 °C 9 °C 1027 hPa North 8 km/h 8 km/h 88 % 0 mm
23:39 10.9 °C 9 °C 1027 hPa SSW 13 km/h 13 km/h 88 % 0 mm
23:44 10.8 °C 8.9 °C 1027 hPa North 9.7 km/h 9.7 km/h 88 % 0 mm
23:49 10.8 °C 8.9 °C 1027 hPa SSW 5.6 km/h 5.6 km/h 88 % 0 mm
23:54 10.8 °C 8.9 °C 1027 hPa SSW 7.4 km/h 7.4 km/h 88 % 0 mm
23:59 10.8 °C 9.1 °C 1026.6 hPa SSW 3.7 km/h   89 % 0 mm
Ararat Weather
Compliments of Weather Underground - 2.25 mb
Click here to send mail.


ABOUT

Live weather data from Ararat, Victoria, Australia, 3377
Data uploaded from Cumulus every 5 minutes to Weather Underground.
This site then downloads the raw data for formatting and display.
Metric and imperial data can be displayed. Graphs and historical data available.
Includes Sun and Moon times and rain image live from BOM.

Check out Ararat Weather on Facebook, Twitter and Google +

Help support ongoing costs by checking out the ads





Follow @AraratWeather